createdAt,value
2018-06-27T00:00:49.882Z,17.73
2018-06-27T00:03:19.174Z,17.69
2018-06-27T00:05:48.587Z,17.70
2018-06-27T00:08:17.822Z,17.72
2018-06-27T00:10:46.613Z,17.62
2018-06-27T00:13:15.864Z,17.64
2018-06-27T00:15:44.972Z,17.62
2018-06-27T00:18:22.550Z,17.56
2018-06-27T00:20:55.357Z,17.55
2018-06-27T00:23:28.060Z,17.54
2018-06-27T00:25:59.488Z,17.45
2018-06-27T00:28:29.388Z,17.41
2018-06-27T00:31:00.463Z,17.42
2018-06-27T00:33:31.583Z,17.36
2018-06-27T00:36:01.582Z,17.32
2018-06-27T00:38:31.620Z,17.37
2018-06-27T00:41:02.112Z,17.39
2018-06-27T00:43:33.014Z,17.30
2018-06-27T00:46:03.542Z,17.29
2018-06-27T00:48:33.458Z,17.24
2018-06-27T00:51:03.183Z,17.24
2018-06-27T00:53:37.751Z,17.31
2018-06-27T00:56:07.073Z,17.21
2018-06-27T00:58:36.382Z,17.20
2018-06-27T01:01:05.903Z,17.13
2018-06-27T01:03:35.821Z,17.14
2018-06-27T01:06:05.209Z,17.14
2018-06-27T01:08:33.789Z,17.08
2018-06-27T01:11:03.184Z,17.06
2018-06-27T01:13:32.477Z,17.04
2018-06-27T01:16:02.274Z,16.99
2018-06-27T01:18:30.972Z,16.95
2018-06-27T01:21:00.378Z,16.97
2018-06-27T01:23:30.356Z,16.94
2018-06-27T01:26:00.329Z,16.94
2018-06-27T01:28:29.936Z,16.99
2018-06-27T01:30:59.334Z,16.92
2018-06-27T01:33:28.487Z,16.90
2018-06-27T01:35:57.829Z,16.93
2018-06-27T01:38:27.109Z,16.89
2018-06-27T01:40:58.226Z,16.88
2018-06-27T01:43:27.051Z,16.83
2018-06-27T01:45:58.394Z,16.88
2018-06-27T01:48:27.893Z,16.84
2018-06-27T01:50:57.893Z,16.81
2018-06-27T01:53:26.540Z,16.79
2018-06-27T01:55:55.473Z,16.79
2018-06-27T01:58:24.528Z,16.83
2018-06-27T02:00:53.217Z,16.81
2018-06-27T02:03:21.884Z,16.82
2018-06-27T02:05:51.265Z,16.80
2018-06-27T02:08:21.930Z,16.78
2018-06-27T02:10:51.326Z,16.76
2018-06-27T02:13:22.081Z,16.76
2018-06-27T02:15:50.817Z,16.78
2018-06-27T02:18:21.592Z,16.75
2018-06-27T02:20:52.360Z,16.68
2018-06-27T02:23:21.840Z,16.65
2018-06-27T02:25:52.268Z,16.62
2018-06-27T02:28:21.094Z,16.63
2018-06-27T02:30:50.505Z,16.64
2018-06-27T02:33:26.241Z,16.63
2018-06-27T02:35:55.176Z,16.60
2018-06-27T02:38:24.860Z,16.63
2018-06-27T02:40:53.896Z,16.62
2018-06-27T02:43:23.425Z,16.60
2018-06-27T02:45:52.940Z,16.58
2018-06-27T02:48:21.553Z,16.58
2018-06-27T02:50:50.638Z,16.61
2018-06-27T02:53:19.339Z,16.61
2018-06-27T02:55:48.203Z,16.59
2018-06-27T02:58:16.861Z,16.56
2018-06-27T03:00:45.505Z,16.58
2018-06-27T03:03:14.129Z,16.60
2018-06-27T03:05:43.059Z,16.57
2018-06-27T03:08:13.093Z,16.55
2018-06-27T03:10:41.785Z,16.57
2018-06-27T03:13:10.446Z,16.53
2018-06-27T03:15:39.091Z,16.50
2018-06-27T03:18:08.019Z,16.49
2018-06-27T03:20:36.671Z,16.48
2018-06-27T03:23:05.833Z,16.45
2018-06-27T03:25:35.410Z,16.44
2018-06-27T03:28:04.616Z,16.43
2018-06-27T03:30:34.690Z,16.43
2018-06-27T03:33:05.618Z,16.43
2018-06-27T03:35:34.401Z,16.47
2018-06-27T03:38:03.040Z,16.44
2018-06-27T03:40:32.142Z,16.44
2018-06-27T03:43:01.237Z,16.47
2018-06-27T03:45:30.992Z,16.46
2018-06-27T03:48:00.848Z,16.48
2018-06-27T03:50:30.209Z,16.51
2018-06-27T03:52:59.988Z,16.47
2018-06-27T03:55:30.629Z,16.44
2018-06-27T03:57:59.397Z,16.44
2018-06-27T04:00:28.961Z,16.46
2018-06-27T04:02:59.291Z,16.49
2018-06-27T04:05:29.344Z,16.51
2018-06-27T04:07:58.240Z,16.54
2018-06-27T04:10:28.015Z,16.61
2018-06-27T04:12:56.930Z,16.69
2018-06-27T04:15:26.464Z,16.67
2018-06-27T04:17:55.873Z,16.71
2018-06-27T04:20:26.122Z,16.75
2018-06-27T04:22:56.229Z,16.71
2018-06-27T04:25:27.434Z,16.67
2018-06-27T04:27:56.950Z,16.67
2018-06-27T04:30:26.771Z,16.72
2018-06-27T04:32:55.959Z,16.73
2018-06-27T04:35:24.952Z,16.71
2018-06-27T04:37:53.650Z,16.68
2018-06-27T04:40:22.685Z,16.66
2018-06-27T04:42:51.405Z,16.64
2018-06-27T04:45:20.319Z,16.75
2018-06-27T04:47:51.514Z,16.80
2018-06-27T04:50:20.802Z,16.81
2018-06-27T04:52:50.530Z,16.90
2018-06-27T04:55:19.977Z,16.99
2018-06-27T04:57:49.568Z,16.97
2018-06-27T05:00:19.581Z,17.00
2018-06-27T05:02:52.724Z,16.96
2018-06-27T05:05:24.798Z,16.97
2018-06-27T05:07:56.044Z,17.02
2018-06-27T05:10:24.983Z,17.06
2018-06-27T05:12:53.849Z,17.16
2018-06-27T05:15:23.053Z,17.18
2018-06-27T05:17:52.312Z,17.27
2018-06-27T05:20:21.104Z,17.39
2018-06-27T05:22:50.562Z,17.40
2018-06-27T05:25:20.275Z,17.43
2018-06-27T05:27:49.752Z,17.43
2018-06-27T05:30:19.414Z,17.41
2018-06-27T05:32:49.407Z,17.40
2018-06-27T05:35:19.724Z,17.41
2018-06-27T05:37:48.465Z,17.44
2018-06-27T05:40:17.279Z,17.46
2018-06-27T05:42:45.988Z,17.51
2018-06-27T05:45:14.714Z,17.59
2018-06-27T05:47:44.682Z,17.79
2018-06-27T05:50:14.583Z,17.72
2018-06-27T05:52:44.524Z,17.87
2018-06-27T05:55:13.952Z,17.83
2018-06-27T05:57:43.669Z,17.79
2018-06-27T06:00:13.371Z,17.81
2018-06-27T06:02:42.876Z,17.96
2018-06-27T06:05:11.776Z,18.00
2018-06-27T06:07:41.627Z,18.04
2018-06-27T06:10:12.249Z,17.99
2018-06-27T06:12:41.954Z,17.98
2018-06-27T06:15:11.406Z,18.03
2018-06-27T06:17:41.228Z,18.06
2018-06-27T06:20:10.286Z,18.11
2018-06-27T06:22:39.100Z,18.16
2018-06-27T06:25:07.937Z,18.23
2018-06-27T06:27:36.609Z,18.31
2018-06-27T06:30:06.010Z,18.46
2018-06-27T06:32:34.964Z,18.59
2018-06-27T06:35:04.004Z,18.71
2018-06-27T06:37:32.742Z,18.68
2018-06-27T06:40:01.872Z,18.75
2018-06-27T06:42:31.355Z,18.93
2018-06-27T06:45:00.059Z,19.00
2018-06-27T06:47:28.683Z,19.11
2018-06-27T06:49:57.590Z,19.26
2018-06-27T06:52:26.816Z,19.48
2018-06-27T06:54:55.885Z,19.53
2018-06-27T06:57:24.516Z,19.75
2018-06-27T06:59:53.162Z,20.01
2018-06-27T07:02:22.075Z,20.11
2018-06-27T07:04:51.077Z,20.38
2018-06-27T07:07:19.732Z,20.65
2018-06-27T07:09:48.608Z,20.93
2018-06-27T07:12:17.491Z,21.33
2018-06-27T07:14:46.346Z,21.48
2018-06-27T07:17:16.310Z,21.50
2018-06-27T07:19:45.948Z,21.77
2018-06-27T07:22:14.948Z,22.03
2018-06-27T07:24:44.353Z,21.89
2018-06-27T07:27:13.442Z,21.82
2018-06-27T07:29:42.460Z,21.87
2018-06-27T07:32:11.423Z,22.30
2018-06-27T07:34:40.148Z,22.78
2018-06-27T07:37:09.069Z,23.24
2018-06-27T07:39:37.732Z,23.66
2018-06-27T07:42:06.445Z,23.82
2018-06-27T07:44:35.596Z,23.95
2018-06-27T07:47:04.171Z,24.20
2018-06-27T07:49:33.284Z,24.20
2018-06-27T07:52:03.401Z,24.47
2018-06-27T07:54:36.291Z,23.87
2018-06-27T07:57:05.089Z,23.68
2018-06-27T07:59:33.758Z,23.81
2018-06-27T08:02:02.536Z,23.89
2018-06-27T08:04:31.331Z,24.18
2018-06-27T08:07:00.079Z,24.13
2018-06-27T08:09:28.821Z,23.81
2018-06-27T08:11:59.543Z,23.45
2018-06-27T08:14:28.361Z,23.65
2018-06-27T08:16:57.210Z,23.48
2018-06-27T08:19:26.126Z,23.79
2018-06-27T08:21:55.055Z,23.57
2018-06-27T08:24:24.111Z,23.03
2018-06-27T08:26:53.041Z,23.55
2018-06-27T08:29:22.811Z,24.37
2018-06-27T08:31:51.473Z,24.90
2018-06-27T08:34:20.471Z,25.49
2018-06-27T08:36:49.185Z,26.07
2018-06-27T08:39:17.862Z,25.76
2018-06-27T08:41:46.578Z,25.33
2018-06-27T08:44:15.650Z,25.65
2018-06-27T08:46:44.589Z,26.11
2018-06-27T08:49:13.250Z,26.46
2018-06-27T08:51:42.922Z,25.92
2018-06-27T08:54:11.616Z,25.26
2018-06-27T08:56:40.187Z,24.73
2018-06-27T08:59:09.358Z,24.22
2018-06-27T09:01:38.293Z,23.72
2018-06-27T09:04:07.086Z,23.38
2018-06-27T09:06:36.077Z,23.18
2018-06-27T09:09:07.599Z,23.13
2018-06-27T09:11:36.421Z,23.41
2018-06-27T09:14:05.108Z,24.02
2018-06-27T09:16:33.889Z,24.05
2018-06-27T09:19:02.500Z,23.98
2018-06-27T09:21:31.469Z,24.39
2018-06-27T09:24:00.238Z,24.71
2018-06-27T09:26:29.269Z,24.84
2018-06-27T09:28:58.048Z,24.21
2018-06-27T09:31:26.644Z,24.02
2018-06-27T09:33:55.693Z,24.12
2018-06-27T09:36:24.579Z,24.35
2018-06-27T09:38:53.424Z,24.03
2018-06-27T09:41:23.321Z,23.98
2018-06-27T09:43:52.004Z,23.83
2018-06-27T09:46:21.033Z,23.58
2018-06-27T09:48:49.719Z,23.49
2018-06-27T09:51:18.715Z,23.21
2018-06-27T09:53:47.450Z,23.16
2018-06-27T09:56:16.154Z,23.06
2018-06-27T09:58:44.845Z,22.99
2018-06-27T10:01:13.473Z,23.00
2018-06-27T10:03:42.113Z,23.05
2018-06-27T10:06:11.055Z,23.06
2018-06-27T10:08:39.897Z,23.23
2018-06-27T10:11:08.744Z,23.32
2018-06-27T10:13:37.379Z,23.57
2018-06-27T10:16:06.061Z,23.32
2018-06-27T10:18:34.747Z,23.28
2018-06-27T10:21:04.228Z,23.19
2018-06-27T10:23:32.995Z,23.16
2018-06-27T10:26:01.693Z,23.33
2018-06-27T10:28:33.486Z,23.57
2018-06-27T10:31:02.064Z,23.66
2018-06-27T10:33:30.786Z,23.53
2018-06-27T10:35:59.756Z,23.46
2018-06-27T10:38:28.368Z,23.52
2018-06-27T10:40:57.146Z,23.57
2018-06-27T10:43:25.898Z,23.64
2018-06-27T10:45:54.540Z,23.45
2018-06-27T10:48:23.237Z,23.37
2018-06-27T10:50:51.997Z,23.10
2018-06-27T10:53:23.298Z,23.50
2018-06-27T10:55:51.993Z,24.08
2018-06-27T10:58:20.854Z,24.58
2018-06-27T11:00:49.623Z,24.92
2018-06-27T11:03:18.351Z,24.80
2018-06-27T11:05:47.050Z,24.52
2018-06-27T11:08:15.892Z,24.17
2018-06-27T11:10:45.180Z,24.10
2018-06-27T11:13:14.866Z,24.29
2018-06-27T11:15:43.537Z,24.61
2018-06-27T11:18:12.225Z,24.49
2018-06-27T11:20:57.054Z,24.54
2018-06-27T11:23:25.841Z,24.48
2018-06-27T11:25:56.399Z,24.48
2018-06-27T11:28:25.230Z,24.36
2018-06-27T11:30:54.201Z,24.12
2018-06-27T11:33:23.262Z,24.07
2018-06-27T11:35:52.220Z,23.92
2018-06-27T11:38:20.988Z,24.44
2018-06-27T11:40:50.068Z,25.45
2018-06-27T11:43:18.992Z,26.88
2018-06-27T11:45:47.790Z,27.16
2018-06-27T11:48:16.630Z,26.85
2018-06-27T11:50:45.382Z,26.77
2018-06-27T11:53:14.356Z,27.01
2018-06-27T11:55:42.990Z,27.27
2018-06-27T11:58:11.675Z,27.21
2018-06-27T12:00:40.385Z,27.33
2018-06-27T12:03:09.129Z,28.28
2018-06-27T12:05:38.195Z,29.38
2018-06-27T12:08:07.290Z,31.51
2018-06-27T12:10:36.348Z,33.68
2018-06-27T12:13:05.301Z,33.86
2018-06-27T12:15:34.786Z,32.15
2018-06-27T12:18:03.653Z,32.43
2018-06-27T12:20:32.386Z,34.28
2018-06-27T12:23:01.066Z,36.40
2018-06-27T12:25:30.027Z,37.76
2018-06-27T12:27:59.669Z,37.26
2018-06-27T12:30:28.460Z,36.76
2018-06-27T12:32:57.247Z,35.78
2018-06-27T12:35:26.005Z,37.30
2018-06-27T12:37:54.682Z,37.89
2018-06-27T12:40:23.468Z,38.22
2018-06-27T12:42:52.131Z,38.99
2018-06-27T12:45:20.788Z,39.92
2018-06-27T12:47:50.082Z,40.86
2018-06-27T12:50:19.230Z,41.74
2018-06-27T12:52:47.868Z,41.36
2018-06-27T12:55:16.552Z,38.99
2018-06-27T12:57:45.158Z,36.39
2018-06-27T13:00:14.453Z,34.17
2018-06-27T13:02:43.122Z,32.96
2018-06-27T13:05:12.177Z,35.31
2018-06-27T13:07:41.151Z,38.10
2018-06-27T13:10:10.193Z,39.66
2018-06-27T13:12:39.024Z,40.79
2018-06-27T13:15:07.915Z,41.90
2018-06-27T13:17:37.153Z,39.81
2018-06-27T13:20:06.145Z,36.68
2018-06-27T13:22:34.781Z,34.05
2018-06-27T13:25:03.483Z,31.98
2018-06-27T13:27:32.550Z,31.75
2018-06-27T13:30:01.230Z,31.95
2018-06-27T13:32:30.241Z,31.22
2018-06-27T13:34:58.914Z,30.76
2018-06-27T13:37:27.477Z,30.79
2018-06-27T13:39:56.549Z,30.20
2018-06-27T13:42:25.536Z,29.12
2018-06-27T13:44:54.238Z,28.12
2018-06-27T13:47:23.018Z,27.31
2018-06-27T13:49:51.825Z,26.97
2018-06-27T13:52:20.651Z,26.63
2018-06-27T13:54:56.126Z,26.50
2018-06-27T13:57:26.485Z,27.10
2018-06-27T13:59:55.933Z,30.40
2018-06-27T14:02:24.639Z,33.70
2018-06-27T14:04:53.482Z,33.81
2018-06-27T14:07:22.508Z,32.28
2018-06-27T14:09:51.249Z,30.65
2018-06-27T14:12:19.942Z,29.29
2018-06-27T14:14:48.827Z,28.14
2018-06-27T14:17:17.714Z,27.41
2018-06-27T14:19:46.397Z,26.86
2018-06-27T14:22:15.060Z,26.16
2018-06-27T14:24:43.767Z,26.06
2018-06-27T14:27:12.562Z,25.76
2018-06-27T14:29:41.479Z,25.42
2018-06-27T14:32:10.607Z,25.33
2018-06-27T14:34:39.393Z,25.25
2018-06-27T14:37:08.107Z,25.19
2018-06-27T14:39:36.801Z,25.22
2018-06-27T14:42:05.746Z,25.20
2018-06-27T14:44:34.471Z,25.17
2018-06-27T14:47:03.127Z,25.04
2018-06-27T14:49:32.315Z,25.09
2018-06-27T14:52:01.054Z,25.07
2018-06-27T14:54:30.715Z,25.02
2018-06-27T14:57:00.092Z,25.09
2018-06-27T14:59:29.066Z,25.21
2018-06-27T15:01:58.034Z,25.19
2018-06-27T15:04:26.905Z,25.14
2018-06-27T15:06:55.563Z,25.08
2018-06-27T15:09:24.516Z,24.97
2018-06-27T15:11:53.265Z,24.81
2018-06-27T15:14:22.057Z,24.70
2018-06-27T15:16:50.726Z,24.71
2018-06-27T15:19:19.714Z,24.72
2018-06-27T15:21:48.409Z,24.61
2018-06-27T15:24:17.149Z,24.51
2018-06-27T15:26:45.868Z,24.38
2018-06-27T15:29:14.556Z,24.37
2018-06-27T15:31:43.347Z,24.33
2018-06-27T15:34:12.291Z,24.43
2018-06-27T15:36:41.184Z,24.37
2018-06-27T15:39:11.290Z,24.31
2018-06-27T15:41:40.074Z,24.31
2018-06-27T15:44:09.135Z,24.30
2018-06-27T15:46:38.097Z,24.35
2018-06-27T15:49:09.130Z,24.30
2018-06-27T15:51:37.955Z,24.35
2018-06-27T15:54:06.861Z,24.44
2018-06-27T15:56:35.805Z,24.56
2018-06-27T15:59:04.818Z,24.70
2018-06-27T16:01:33.562Z,24.73
2018-06-27T16:04:02.539Z,24.76
2018-06-27T16:06:31.193Z,24.79
2018-06-27T16:09:01.038Z,24.82
2018-06-27T16:11:29.815Z,24.76
2018-06-27T16:13:58.544Z,24.75
2018-06-27T16:16:27.329Z,24.69
2018-06-27T16:18:56.118Z,24.61
2018-06-27T16:21:25.135Z,24.41
2018-06-27T16:23:54.153Z,24.36
2018-06-27T16:26:24.087Z,24.45
2018-06-27T16:28:52.905Z,24.34
2018-06-27T16:31:22.082Z,24.51
2018-06-27T16:33:50.877Z,24.39
2018-06-27T16:36:20.062Z,24.36
2018-06-27T16:38:49.346Z,24.22
2018-06-27T16:41:18.406Z,24.14
2018-06-27T16:43:47.097Z,24.08
2018-06-27T16:46:16.173Z,24.06
2018-06-27T16:48:45.063Z,24.05
2018-06-27T16:51:14.479Z,24.10
2018-06-27T16:53:43.190Z,24.01
2018-06-27T16:56:12.035Z,24.02
2018-06-27T16:58:40.703Z,23.99
2018-06-27T17:01:09.439Z,24.12
2018-06-27T17:03:38.070Z,24.10
2018-06-27T17:06:06.769Z,24.13
2018-06-27T17:08:35.829Z,24.07
2018-06-27T17:11:04.663Z,24.09
2018-06-27T17:13:33.350Z,24.11
2018-06-27T17:16:02.121Z,24.20
2018-06-27T17:18:30.879Z,24.40
2018-06-27T17:20:59.860Z,24.36
2018-06-27T17:23:28.799Z,24.44
2018-06-27T17:25:57.508Z,24.39
2018-06-27T17:28:26.296Z,24.22
2018-06-27T17:30:55.005Z,24.17
2018-06-27T17:33:24.038Z,24.04
2018-06-27T17:35:53.947Z,23.99
2018-06-27T17:38:22.693Z,23.96
2018-06-27T17:40:51.910Z,23.87
2018-06-27T17:43:20.689Z,23.83
2018-06-27T17:45:49.557Z,23.75
2018-06-27T17:48:18.701Z,23.71
2018-06-27T17:50:47.500Z,23.62
2018-06-27T17:53:16.257Z,23.53
2018-06-27T17:55:44.996Z,23.46
2018-06-27T17:58:14.030Z,23.42
2018-06-27T18:00:42.835Z,23.37
2018-06-27T18:03:11.632Z,23.37
2018-06-27T18:05:40.403Z,23.40
2018-06-27T18:08:15.406Z,23.41
2018-06-27T18:10:44.435Z,23.44
2018-06-27T18:13:13.249Z,23.35
2018-06-27T18:15:41.971Z,23.26
2018-06-27T18:18:10.645Z,23.23
2018-06-27T18:20:39.725Z,23.13
2018-06-27T18:23:08.971Z,23.11
2018-06-27T18:25:38.874Z,23.16
2018-06-27T18:28:07.639Z,23.06
2018-06-27T18:30:36.338Z,22.99
2018-06-27T18:33:05.075Z,22.93
2018-06-27T18:35:33.813Z,22.88
2018-06-27T18:38:02.485Z,22.84
2018-06-27T18:40:31.147Z,22.83
2018-06-27T18:42:59.881Z,22.79
2018-06-27T18:45:28.768Z,22.77
2018-06-27T18:47:57.439Z,22.75
2018-06-27T18:50:26.195Z,22.74
2018-06-27T18:52:55.001Z,22.71
2018-06-27T18:55:24.487Z,22.71
2018-06-27T18:57:53.529Z,22.71
2018-06-27T19:00:23.609Z,22.70
2018-06-27T19:02:52.325Z,22.68
2018-06-27T19:05:21.049Z,22.67
2018-06-27T19:07:50.255Z,22.64
2018-06-27T19:10:19.010Z,22.61
2018-06-27T19:12:48.440Z,22.59
2018-06-27T19:15:17.205Z,22.55
2018-06-27T19:17:47.253Z,22.51
2018-06-27T19:20:16.139Z,22.48
2018-06-27T19:22:45.421Z,22.48
2018-06-27T19:25:14.268Z,22.44
2018-06-27T19:27:42.976Z,22.40
2018-06-27T19:30:11.706Z,22.36
2018-06-27T19:32:40.418Z,22.34
2018-06-27T19:35:09.594Z,22.28
2018-06-27T19:37:38.547Z,22.26
2018-06-27T19:40:07.427Z,22.24
2018-06-27T19:42:36.186Z,22.21
2018-06-27T19:45:08.996Z,22.19
2018-06-27T19:47:37.807Z,22.17
2018-06-27T19:50:06.568Z,22.15
2018-06-27T19:52:35.681Z,22.18
2018-06-27T19:55:04.710Z,22.22
2018-06-27T19:57:33.903Z,22.15
2018-06-27T20:00:02.706Z,22.14
2018-06-27T20:02:31.658Z,22.22
2018-06-27T20:05:00.440Z,22.21
2018-06-27T20:07:29.684Z,22.15
2018-06-27T20:09:58.394Z,22.11
2018-06-27T20:12:27.133Z,22.06
2018-06-27T20:14:57.128Z,22.03
2018-06-27T20:17:26.298Z,22.09
2018-06-27T20:19:54.957Z,22.19
2018-06-27T20:22:24.179Z,22.04
2018-06-27T20:24:52.852Z,22.11
2018-06-27T20:27:21.514Z,22.05
2018-06-27T20:29:50.217Z,21.95
2018-06-27T20:32:18.998Z,21.92
2018-06-27T20:34:47.682Z,21.86
2018-06-27T20:37:16.419Z,21.86
2018-06-27T20:39:45.150Z,21.87
2018-06-27T20:42:14.613Z,21.87
2018-06-27T20:44:43.325Z,21.83
2018-06-27T20:47:12.623Z,21.84
2018-06-27T20:49:41.673Z,21.81
2018-06-27T20:52:10.975Z,21.79
2018-06-27T20:54:40.782Z,21.75
2018-06-27T20:57:09.659Z,21.66
2018-06-27T20:59:38.727Z,21.62
2018-06-27T21:02:07.534Z,21.60
2018-06-27T21:04:36.881Z,21.66
2018-06-27T21:07:06.451Z,21.60
2018-06-27T21:09:36.177Z,21.54
2018-06-27T21:12:05.844Z,21.55
2018-06-27T21:14:34.918Z,21.51
2018-06-27T21:17:06.411Z,21.49
2018-06-27T21:19:35.652Z,21.47
2018-06-27T21:22:05.373Z,21.46
2018-06-27T21:24:36.382Z,21.47
2018-06-27T21:27:08.346Z,21.40
2018-06-27T21:29:38.544Z,21.34
2018-06-27T21:32:11.297Z,21.34
2018-06-27T21:34:40.958Z,21.43
2018-06-27T21:37:09.700Z,21.36
2018-06-27T21:39:38.445Z,21.30
2018-06-27T21:42:07.732Z,21.33
2018-06-27T21:44:36.688Z,21.25
2018-06-27T21:47:05.729Z,21.22
2018-06-27T21:49:36.363Z,21.19
2018-06-27T21:52:05.171Z,21.13
2018-06-27T21:54:33.893Z,21.11
2018-06-27T21:57:02.777Z,21.10
2018-06-27T21:59:31.791Z,21.06
2018-06-27T22:02:00.460Z,21.12
2018-06-27T22:04:29.614Z,21.08
2018-06-27T22:06:58.593Z,21.05
2018-06-27T22:09:27.787Z,20.96
2018-06-27T22:11:56.429Z,20.97
2018-06-27T22:14:25.360Z,20.93
2018-06-27T22:16:54.501Z,20.92
2018-06-27T22:19:24.344Z,20.91
2018-06-27T22:21:53.349Z,20.87
2018-06-27T22:24:21.986Z,20.81
2018-06-27T22:26:50.617Z,20.79
2018-06-27T22:29:19.541Z,20.81
2018-06-27T22:31:48.195Z,20.76
2018-06-27T22:34:17.165Z,20.74
2018-06-27T22:36:46.317Z,20.69
2018-06-27T22:39:15.312Z,20.72
2018-06-27T22:41:44.162Z,20.69
2018-06-27T22:44:12.809Z,20.64
2018-06-27T22:46:41.467Z,20.63
2018-06-27T22:49:10.181Z,20.63
2018-06-27T22:51:39.093Z,20.63
2018-06-27T22:54:08.051Z,20.59
2018-06-27T22:56:36.777Z,20.68
2018-06-27T22:59:05.453Z,20.59
2018-06-27T23:01:34.226Z,20.54
2018-06-27T23:04:02.888Z,20.57
2018-06-27T23:06:32.514Z,20.53
2018-06-27T23:09:01.537Z,20.48
2018-06-27T23:11:30.632Z,20.49
2018-06-27T23:13:59.274Z,20.48
2018-06-27T23:16:27.910Z,20.45
2018-06-27T23:18:56.660Z,20.47
2018-06-27T23:21:25.629Z,20.42
2018-06-27T23:23:54.283Z,20.41
2018-06-27T23:26:23.237Z,20.43
2018-06-27T23:28:52.129Z,20.43
2018-06-27T23:31:20.923Z,20.38
2018-06-27T23:33:49.556Z,20.37
2018-06-27T23:36:18.180Z,20.34
2018-06-27T23:38:46.869Z,20.33
2018-06-27T23:41:15.807Z,20.33
2018-06-27T23:43:44.694Z,20.29
2018-06-27T23:46:13.793Z,20.23
2018-06-27T23:48:42.894Z,20.20
2018-06-27T23:51:11.661Z,20.18
2018-06-27T23:53:41.319Z,20.16
2018-06-27T23:56:10.003Z,20.14
2018-06-27T23:58:38.746Z,20.10
